createdAt,value
2019-01-30T00:01:22.456Z,12.57
2019-01-30T00:04:25.999Z,11.90
2019-01-30T00:07:29.882Z,12.20
2019-01-30T00:10:33.725Z,11.50
2019-01-30T00:13:37.358Z,11.10
2019-01-30T00:16:40.922Z,10.70
2019-01-30T00:19:44.476Z,10.70
2019-01-30T00:22:48.623Z,10.80
2019-01-30T00:25:52.171Z,9.90
2019-01-30T00:28:55.730Z,10.27
2019-01-30T00:31:59.284Z,9.47
2019-01-30T00:35:02.838Z,9.53
2019-01-30T00:38:06.460Z,9.70
2019-01-30T00:41:10.000Z,8.87
2019-01-30T00:44:13.632Z,8.70
2019-01-30T00:47:17.293Z,8.50
2019-01-30T00:50:20.945Z,8.10
2019-01-30T00:53:24.497Z,8.87
2019-01-30T00:56:28.110Z,8.43
2019-01-30T00:59:31.661Z,8.03
2019-01-30T01:02:35.583Z,7.57
2019-01-30T01:05:39.694Z,7.93
2019-01-30T01:08:43.908Z,7.33
2019-01-30T01:11:47.459Z,7.73
2019-01-30T01:14:53.141Z,6.77
2019-01-30T01:17:56.649Z,7.10
2019-01-30T01:21:00.580Z,6.37
2019-01-30T01:24:04.199Z,6.20
2019-01-30T01:27:07.752Z,6.07
2019-01-30T01:30:24.583Z,6.87
2019-01-30T01:33:19.995Z,6.40
2019-01-30T01:36:23.537Z,6.37
2019-01-30T01:39:27.089Z,6.33
2019-01-30T01:42:30.984Z,6.33
2019-01-30T01:45:34.485Z,6.37
2019-01-30T01:48:38.036Z,5.97
2019-01-30T01:51:41.586Z,5.83
2019-01-30T01:54:46.156Z,5.70
2019-01-30T01:57:49.713Z,6.10
2019-01-30T02:00:53.661Z,6.17
2019-01-30T02:03:57.215Z,5.33
2019-01-30T02:07:00.761Z,5.40
2019-01-30T02:10:05.664Z,6.20
2019-01-30T02:13:09.533Z,5.23
2019-01-30T02:16:13.076Z,4.57
2019-01-30T02:19:16.645Z,5.40
2019-01-30T02:22:20.177Z,4.77
2019-01-30T02:25:23.723Z,5.40
2019-01-30T02:28:27.281Z,4.83
2019-01-30T02:31:30.826Z,4.70
2019-01-30T02:34:34.662Z,5.00
2019-01-30T02:37:38.211Z,4.87
2019-01-30T02:40:41.776Z,4.80
2019-01-30T02:43:45.677Z,4.07
2019-01-30T02:46:49.315Z,4.97
2019-01-30T02:49:52.882Z,4.80
2019-01-30T02:52:56.419Z,4.43
2019-01-30T02:55:59.950Z,4.90
2019-01-30T02:59:03.576Z,4.27
2019-01-30T03:02:25.685Z,4.80
2019-01-30T03:05:29.247Z,4.63
2019-01-30T03:08:32.871Z,4.13
2019-01-30T03:11:36.676Z,4.20
2019-01-30T03:14:40.423Z,4.97
2019-01-30T03:17:44.028Z,4.50
2019-01-30T03:20:47.571Z,4.23
2019-01-30T03:23:51.094Z,4.50
2019-01-30T03:26:54.877Z,4.00
2019-01-30T03:29:58.430Z,4.03
2019-01-30T03:33:01.973Z,4.13
2019-01-30T03:36:05.595Z,4.63
2019-01-30T03:39:09.193Z,4.13
2019-01-30T03:42:12.744Z,4.30
2019-01-30T03:45:18.552Z,4.10
2019-01-30T03:48:22.077Z,4.40
2019-01-30T03:51:25.688Z,4.30
2019-01-30T03:54:29.874Z,4.07
2019-01-30T03:57:33.419Z,3.90
2019-01-30T04:00:37.286Z,4.03
2019-01-30T04:03:41.299Z,3.90
2019-01-30T04:06:44.842Z,4.53
2019-01-30T04:09:48.374Z,3.80
2019-01-30T04:12:52.372Z,3.73
2019-01-30T04:15:55.927Z,4.00
2019-01-30T04:18:59.647Z,3.70
2019-01-30T04:22:03.282Z,3.90
2019-01-30T04:25:08.057Z,3.60
2019-01-30T04:28:11.949Z,4.20
2019-01-30T04:31:15.504Z,3.73
2019-01-30T04:34:19.037Z,3.70
2019-01-30T04:37:22.576Z,3.70
2019-01-30T04:40:26.102Z,3.40
2019-01-30T04:43:29.688Z,3.60
2019-01-30T04:46:33.329Z,3.70
2019-01-30T04:49:37.484Z,3.60
2019-01-30T04:52:41.351Z,3.60
2019-01-30T04:55:44.919Z,3.30
2019-01-30T04:58:48.454Z,3.80
2019-01-30T05:01:52.356Z,3.63
2019-01-30T05:04:56.128Z,3.53
2019-01-30T05:07:59.689Z,3.17
2019-01-30T05:11:03.533Z,3.13
2019-01-30T05:14:07.079Z,3.10
2019-01-30T05:17:10.632Z,3.20
2019-01-30T05:20:15.961Z,2.90
2019-01-30T05:23:20.142Z,2.90
2019-01-30T05:26:23.679Z,3.20
2019-01-30T05:29:27.217Z,3.10
2019-01-30T05:32:31.057Z,3.10
2019-01-30T05:35:34.961Z,3.30
2019-01-30T05:38:38.582Z,12.83
2019-01-30T05:41:42.213Z,12.33
2019-01-30T05:44:45.770Z,10.97
2019-01-30T05:47:49.654Z,10.80
2019-01-30T05:50:53.448Z,10.47
2019-01-30T05:53:56.998Z,10.73
2019-01-30T05:57:00.535Z,39.23
2019-01-30T06:00:06.721Z,24.90
2019-01-30T06:03:10.335Z,31.17
2019-01-30T06:06:13.890Z,28.47
2019-01-30T06:09:17.750Z,25.20
2019-01-30T06:12:21.294Z,21.83
2019-01-30T06:15:25.078Z,20.27
2019-01-30T06:18:28.618Z,18.00
2019-01-30T06:21:32.486Z,17.40
2019-01-30T06:24:36.049Z,16.50
2019-01-30T06:27:39.599Z,16.13
2019-01-30T06:30:43.149Z,14.40
2019-01-30T06:33:46.758Z,14.37
2019-01-30T06:36:50.620Z,13.17
2019-01-30T06:39:54.174Z,12.90
2019-01-30T06:42:57.722Z,12.17
2019-01-30T06:46:01.264Z,12.20
2019-01-30T06:49:04.897Z,11.93
2019-01-30T06:52:08.444Z,11.33
2019-01-30T06:55:12.073Z,11.23
2019-01-30T06:58:15.609Z,10.50
2019-01-30T07:01:19.159Z,11.07
2019-01-30T07:04:22.713Z,10.73
2019-01-30T07:07:26.888Z,10.07
2019-01-30T07:10:30.775Z,10.40
2019-01-30T07:13:34.570Z,9.70
2019-01-30T07:16:38.115Z,9.50
2019-01-30T07:19:41.983Z,9.53
2019-01-30T07:22:45.624Z,8.63
2019-01-30T07:25:49.158Z,9.10
2019-01-30T07:28:52.697Z,8.50
2019-01-30T07:31:56.325Z,8.53
2019-01-30T07:34:59.880Z,8.23
2019-01-30T07:38:03.784Z,8.10
2019-01-30T07:41:07.749Z,7.77
2019-01-30T07:44:11.689Z,8.33
2019-01-30T07:47:15.659Z,7.37
2019-01-30T07:50:19.467Z,7.10
2019-01-30T07:53:23.029Z,6.93
2019-01-30T07:56:28.948Z,7.27
2019-01-30T07:59:32.215Z,6.70
2019-01-30T08:02:35.713Z,6.83
2019-01-30T08:05:39.315Z,6.63
2019-01-30T08:08:42.870Z,6.80
2019-01-30T08:11:46.480Z,6.50
2019-01-30T08:14:50.048Z,6.73
2019-01-30T08:17:53.659Z,6.50
2019-01-30T08:20:57.197Z,5.90
2019-01-30T08:24:01.386Z,5.97
2019-01-30T08:27:05.160Z,5.40
2019-01-30T08:30:22.108Z,5.50
2019-01-30T08:33:18.045Z,5.53
2019-01-30T08:36:21.608Z,5.67
2019-01-30T08:39:25.165Z,5.37
2019-01-30T08:42:28.700Z,5.10
2019-01-30T08:45:32.727Z,5.70
2019-01-30T08:48:36.671Z,5.13
2019-01-30T08:51:40.219Z,5.23
2019-01-30T08:54:43.791Z,5.10
2019-01-30T08:57:47.321Z,5.13
2019-01-30T09:00:50.861Z,4.90
2019-01-30T09:03:54.433Z,4.70
2019-01-30T09:06:57.956Z,4.57
2019-01-30T09:10:01.827Z,4.87
2019-01-30T09:13:05.442Z,4.80
2019-01-30T09:16:09.312Z,4.80
2019-01-30T09:19:12.940Z,4.77
2019-01-30T09:22:16.698Z,4.20
2019-01-30T09:25:22.008Z,4.03
2019-01-30T09:28:25.597Z,3.97
2019-01-30T09:31:29.149Z,3.97
2019-01-30T09:34:32.692Z,4.43
2019-01-30T09:37:36.526Z,3.90
2019-01-30T09:40:40.104Z,3.67
2019-01-30T09:43:43.671Z,3.73
2019-01-30T09:46:47.204Z,3.97
2019-01-30T09:49:51.083Z,3.70
2019-01-30T09:52:55.392Z,3.90
2019-01-30T09:55:58.937Z,3.83
2019-01-30T09:59:02.488Z,3.50
2019-01-30T10:02:06.113Z,3.97
2019-01-30T10:05:10.459Z,39.33
2019-01-30T10:08:14.389Z,57.87
2019-01-30T10:11:18.469Z,31.37
2019-01-30T10:14:22.027Z,48.23
2019-01-30T10:17:25.596Z,79.33
2019-01-30T10:20:29.727Z,78.77
2019-01-30T10:23:33.268Z,72.90
2019-01-30T10:26:36.826Z,64.23
2019-01-30T10:29:40.692Z,58.17
2019-01-30T10:32:44.298Z,56.27
2019-01-30T10:35:47.983Z,50.40
2019-01-30T10:38:52.158Z,47.50
2019-01-30T10:41:55.720Z,47.80
2019-01-30T10:44:59.336Z,43.73
2019-01-30T10:48:02.897Z,43.17
2019-01-30T10:51:07.399Z,40.90
2019-01-30T10:54:11.128Z,39.33
2019-01-30T10:57:14.687Z,37.40
2019-01-30T11:00:24.051Z,37.27
2019-01-30T11:03:27.636Z,34.17
2019-01-30T11:06:31.182Z,33.20
2019-01-30T11:09:35.030Z,32.43
2019-01-30T11:12:38.845Z,31.10
2019-01-30T11:15:42.787Z,30.10
2019-01-30T11:18:46.556Z,28.60
2019-01-30T11:21:50.080Z,28.63
2019-01-30T11:24:55.756Z,26.50
2019-01-30T11:27:59.898Z,26.83
2019-01-30T11:31:03.510Z,25.87
2019-01-30T11:34:08.020Z,24.97
2019-01-30T11:37:11.892Z,24.80
2019-01-30T11:40:16.646Z,23.20
2019-01-30T11:43:20.478Z,23.00
2019-01-30T11:46:24.019Z,22.13
2019-01-30T11:49:27.852Z,22.03
2019-01-30T11:52:31.410Z,21.23
2019-01-30T11:55:35.216Z,20.60
2019-01-30T11:58:38.818Z,19.63
2019-01-30T12:01:42.371Z,19.80
2019-01-30T12:04:45.931Z,18.33
2019-01-30T12:07:49.499Z,18.67
2019-01-30T12:10:53.045Z,17.57
2019-01-30T12:13:56.601Z,18.77
2019-01-30T12:17:00.135Z,16.90
2019-01-30T12:20:04.518Z,16.23
2019-01-30T12:23:08.159Z,16.07
2019-01-30T12:26:11.724Z,15.20
2019-01-30T12:29:15.622Z,15.27
2019-01-30T12:32:19.161Z,15.00
2019-01-30T12:35:22.727Z,14.63
2019-01-30T12:38:26.265Z,15.10
2019-01-30T12:41:29.811Z,13.60
2019-01-30T12:44:33.685Z,13.70
2019-01-30T12:47:37.374Z,13.90
2019-01-30T12:50:41.252Z,13.23
2019-01-30T12:53:44.807Z,12.20
2019-01-30T12:56:48.697Z,11.73
2019-01-30T12:59:52.263Z,12.43
2019-01-30T13:02:55.894Z,12.03
2019-01-30T13:05:59.567Z,11.50
2019-01-30T13:09:03.300Z,11.10
2019-01-30T13:12:06.862Z,10.63
2019-01-30T13:15:12.469Z,10.77
2019-01-30T13:18:18.599Z,10.33
2019-01-30T13:21:21.850Z,9.87
2019-01-30T13:24:25.409Z,9.93
2019-01-30T13:27:28.951Z,9.93
2019-01-30T13:30:43.717Z,9.20
2019-01-30T13:33:47.141Z,9.17
2019-01-30T13:36:50.981Z,8.90
2019-01-30T13:39:54.767Z,9.20
2019-01-30T13:42:58.734Z,8.80
2019-01-30T13:46:05.440Z,8.60
2019-01-30T13:49:07.584Z,8.50
2019-01-30T13:52:11.215Z,7.80
2019-01-30T13:55:14.892Z,7.80
2019-01-30T13:58:18.976Z,8.13
2019-01-30T14:01:22.790Z,7.33
2019-01-30T14:04:26.321Z,7.53
2019-01-30T14:07:29.933Z,7.33
2019-01-30T14:10:33.484Z,7.47
2019-01-30T14:13:37.038Z,6.97
2019-01-30T14:16:40.578Z,7.30
2019-01-30T14:19:44.113Z,6.17
2019-01-30T14:22:47.837Z,6.73
2019-01-30T14:25:51.414Z,6.97
2019-01-30T14:28:54.934Z,6.00
2019-01-30T14:31:58.614Z,6.40
2019-01-30T14:35:10.614Z,5.63
2019-01-30T14:38:07.495Z,5.67
2019-01-30T14:41:11.075Z,17.67
2019-01-30T14:44:14.875Z,39.00
2019-01-30T14:47:18.521Z,33.43
2019-01-30T14:50:24.134Z,89.23
2019-01-30T14:53:27.754Z,113.40
2019-01-30T14:56:31.556Z,110.47
2019-01-30T14:59:35.548Z,110.20
2019-01-30T15:02:39.430Z,109.30
2019-01-30T15:05:43.085Z,108.27
2019-01-30T15:08:47.263Z,103.50
2019-01-30T15:11:50.927Z,102.43
2019-01-30T15:14:54.460Z,98.63
2019-01-30T15:17:58.153Z,99.27
2019-01-30T15:21:01.760Z,98.73
2019-01-30T15:24:05.610Z,94.27
2019-01-30T15:27:09.256Z,95.27
2019-01-30T15:30:16.457Z,91.33
2019-01-30T15:33:20.046Z,90.27
2019-01-30T15:36:24.269Z,91.13
2019-01-30T15:39:27.831Z,87.67
2019-01-30T15:42:31.990Z,85.40
2019-01-30T15:45:35.616Z,88.47
2019-01-30T15:48:39.179Z,82.77
2019-01-30T15:51:42.723Z,83.17
2019-01-30T15:54:46.289Z,80.93
2019-01-30T15:57:53.005Z,80.03
2019-01-30T16:01:09.941Z,81.87
2019-01-30T16:04:13.962Z,78.70
2019-01-30T16:07:17.731Z,79.57
2019-01-30T16:10:21.709Z,76.47
2019-01-30T16:13:25.287Z,72.00
2019-01-30T16:16:28.843Z,72.80
2019-01-30T16:19:32.416Z,74.73
2019-01-30T16:22:35.950Z,70.47
2019-01-30T16:25:39.509Z,72.73
2019-01-30T16:28:43.079Z,69.93
2019-01-30T16:31:46.614Z,69.80
2019-01-30T16:34:50.175Z,69.53
2019-01-30T16:37:54.079Z,63.80
2019-01-30T16:40:57.654Z,66.03
2019-01-30T16:44:01.216Z,66.33
2019-01-30T16:47:04.768Z,63.87
2019-01-30T16:50:10.416Z,62.20
2019-01-30T16:53:14.028Z,63.20
2019-01-30T16:56:18.256Z,63.27
2019-01-30T16:59:21.815Z,63.80
2019-01-30T17:02:25.648Z,59.23
2019-01-30T17:05:30.390Z,58.67
2019-01-30T17:08:34.513Z,59.30
2019-01-30T17:11:38.070Z,59.27
2019-01-30T17:14:41.955Z,58.03
2019-01-30T17:17:46.974Z,55.57
2019-01-30T17:20:50.563Z,53.63
2019-01-30T17:23:57.164Z,55.23
2019-01-30T17:27:00.056Z,53.93
2019-01-30T17:30:04.488Z,53.27
2019-01-30T17:33:08.283Z,54.20
2019-01-30T17:36:18.764Z,51.67
2019-01-30T17:39:17.364Z,51.90
2019-01-30T17:42:21.946Z,50.87
2019-01-30T17:45:25.644Z,49.93
2019-01-30T17:48:29.189Z,49.93
2019-01-30T17:51:33.077Z,46.83
2019-01-30T17:54:36.945Z,43.00
2019-01-30T17:57:40.496Z,39.80
2019-01-30T18:00:48.499Z,38.57
2019-01-30T18:03:52.182Z,36.37
2019-01-30T18:06:55.738Z,35.23
2019-01-30T18:09:59.532Z,34.70
2019-01-30T18:13:03.515Z,32.43
2019-01-30T18:16:07.135Z,31.40
2019-01-30T18:19:10.952Z,29.60
2019-01-30T18:22:14.495Z,20.73
2019-01-30T18:25:18.123Z,13.33
2019-01-30T18:28:21.711Z,23.37
2019-01-30T18:31:25.281Z,22.60
2019-01-30T18:34:28.838Z,20.87
2019-01-30T18:37:32.398Z,19.67
2019-01-30T18:40:36.228Z,19.33
2019-01-30T18:43:40.069Z,18.60
2019-01-30T18:46:43.639Z,18.07
2019-01-30T18:49:47.302Z,17.93
2019-01-30T18:52:51.030Z,16.87
2019-01-30T18:55:54.590Z,16.27
2019-01-30T18:58:58.135Z,16.47
2019-01-30T19:02:01.681Z,15.63
2019-01-30T19:05:06.791Z,15.13
2019-01-30T19:08:10.752Z,14.60
2019-01-30T19:11:14.302Z,14.23
2019-01-30T19:14:17.851Z,14.00
2019-01-30T19:17:21.512Z,13.80
2019-01-30T19:20:30.486Z,14.83
2019-01-30T19:23:34.086Z,13.40
2019-01-30T19:26:37.617Z,13.10
2019-01-30T19:29:41.308Z,29.30
2019-01-30T19:32:45.355Z,34.63
2019-01-30T19:35:49.018Z,23.63
2019-01-30T19:38:52.741Z,28.00
2019-01-30T19:41:56.609Z,27.70
2019-01-30T19:45:00.194Z,25.83
2019-01-30T19:48:04.445Z,25.27
2019-01-30T19:51:07.976Z,23.70
2019-01-30T19:54:11.530Z,22.40
2019-01-30T19:57:15.374Z,20.67
2019-01-30T20:00:24.510Z,21.83
2019-01-30T20:03:31.498Z,19.90
2019-01-30T20:06:34.967Z,19.17
2019-01-30T20:09:38.522Z,18.70
2019-01-30T20:12:42.416Z,18.27
2019-01-30T20:15:46.247Z,17.60
2019-01-30T20:18:50.539Z,17.87
2019-01-30T20:21:54.368Z,17.47
2019-01-30T20:24:57.929Z,16.37
2019-01-30T20:28:01.867Z,15.87
2019-01-30T20:31:05.675Z,16.40
2019-01-30T20:34:10.546Z,15.63
2019-01-30T20:37:25.609Z,15.23
2019-01-30T20:40:23.540Z,14.50
2019-01-30T20:43:27.543Z,14.80
2019-01-30T20:46:31.104Z,14.63
2019-01-30T20:49:34.928Z,13.60
2019-01-30T20:52:38.461Z,14.47
2019-01-30T20:55:43.111Z,13.87
2019-01-30T20:58:46.658Z,13.43
2019-01-30T21:01:50.229Z,13.23
2019-01-30T21:04:53.778Z,12.10
2019-01-30T21:07:57.864Z,12.03
2019-01-30T21:11:01.408Z,12.10
2019-01-30T21:14:05.355Z,12.70
2019-01-30T21:17:08.939Z,40.93
2019-01-30T21:20:13.089Z,41.17
2019-01-30T21:23:16.768Z,35.50
2019-01-30T21:26:20.386Z,36.90
2019-01-30T21:29:23.942Z,34.43
2019-01-30T21:32:27.726Z,30.43
2019-01-30T21:35:31.524Z,29.57
2019-01-30T21:38:35.072Z,28.20
2019-01-30T21:41:38.995Z,26.37
2019-01-30T21:44:43.127Z,130.77
2019-01-30T21:47:46.803Z,45.63
2019-01-30T21:50:50.668Z,43.10
2019-01-30T21:53:54.245Z,43.43
2019-01-30T21:56:58.165Z,42.03
2019-01-30T22:00:02.053Z,42.97
2019-01-30T22:03:05.987Z,40.97
2019-01-30T22:06:09.550Z,39.30
2019-01-30T22:09:13.095Z,38.47
2019-01-30T22:12:16.652Z,37.37
2019-01-30T22:15:20.223Z,35.00
2019-01-30T22:18:25.715Z,37.20
2019-01-30T22:21:30.131Z,34.93
2019-01-30T22:24:34.022Z,34.00
2019-01-30T22:27:37.656Z,33.97
2019-01-30T22:30:41.223Z,32.93
2019-01-30T22:33:44.812Z,30.63
2019-01-30T22:36:48.717Z,41.13
2019-01-30T22:39:52.622Z,96.43
2019-01-30T22:42:56.358Z,91.93
2019-01-30T22:46:00.056Z,90.60
2019-01-30T22:49:03.944Z,82.73
2019-01-30T22:52:08.023Z,88.17
2019-01-30T22:55:14.582Z,86.57
2019-01-30T22:58:18.576Z,84.07
2019-01-30T23:01:48.390Z,80.33
2019-01-30T23:05:04.248Z,78.83
2019-01-30T23:08:37.595Z,80.00
2019-01-30T23:12:14.784Z,77.87
2019-01-30T23:15:28.529Z,76.07
2019-01-30T23:19:09.819Z,69.60
2019-01-30T23:22:34.138Z,71.70
2019-01-30T23:26:03.408Z,71.57
2019-01-30T23:29:30.166Z,69.07
2019-01-30T23:33:16.956Z,69.67
2019-01-30T23:36:43.073Z,66.30
2019-01-30T23:40:23.477Z,67.87
2019-01-30T23:43:52.891Z,67.27
2019-01-30T23:47:11.530Z,63.57
2019-01-30T23:50:26.451Z,63.33
2019-01-30T23:54:44.992Z,63.17
2019-01-30T23:58:11.408Z,60.47
